»·PEaware :: N54102 KMRY-KOAK

N54102 :: KMRY-KOAK

FLIGHT INFORMATION

Flight Status: Arrived
Operator: Privately registered:
United States
More flights under this callsign
Pilot: Chris B. (23589)
Aircraft: CESSNA 172 SKYHAWK
(C172)
More flights by this aircraft type
Origin: KMRY Monterey Peninsula
United States
Destination: KOAK Metro Oakland Intl
United States
More flights between these airports :: More routes between these airports
Route: MRY5 SNS V111 KARNN V301 SUNOL
File this flight plan on PilotEdge
Remarks:
Altitude:
(Current/Filed)
8,000ft
Speed:
(Current/Filed)
110kts
Departed: 07-Jan-21 06:38 PM
Arrived: 07-Jan-21 07:56 PM
Distance/Time
Traveled:
71nm/1:18
Distance/Time
To Go:
Arrived

Flight Plot

Page will automatically refresh every two minutes.

Flight plan parsing failed; only flown route is shown


Map Options




Map Legend


Flown Route
Filed Route
Departure Airport
Arrival Airport
Navaid (VOR, NDB)
Fix

Horizontal Profiles

Position Reports

Time Latitude Longitude Heading Altitude Ground
Speed
07-Jan-21 18:11 36.588278 -121.852179 22 174ft 0kts
07-Jan-21 18:12 36.588278 -121.852179 22 174ft 0kts
07-Jan-21 18:13 36.588278 -121.852179 22 174ft 0kts
07-Jan-21 18:14 36.588278 -121.852179 22 174ft 0kts
07-Jan-21 18:16 36.588278 -121.852179 22 174ft 0kts
07-Jan-21 18:17 36.588278 -121.852179 22 174ft 0kts
07-Jan-21 18:18 36.588278 -121.852179 22 174ft 0kts
07-Jan-21 18:19 36.588278 -121.852179 22 174ft 0kts
07-Jan-21 18:20 36.588278 -121.852179 22 174ft 0kts
07-Jan-21 18:21 36.588278 -121.852179 22 174ft 0kts
07-Jan-21 18:22 36.588278 -121.852179 22 174ft 0kts
07-Jan-21 18:23 36.588278 -121.852179 22 174ft 0kts
07-Jan-21 18:24 36.588278 -121.852179 22 174ft 0kts
07-Jan-21 18:25 36.588278 -121.852179 22 174ft 0kts
07-Jan-21 18:26 36.588278 -121.852179 22 174ft 0kts
07-Jan-21 18:27 36.588278 -121.852179 22 174ft 0kts
07-Jan-21 18:28 36.588278 -121.852179 22 174ft 0kts
07-Jan-21 18:29 36.588333 -121.850861 111 174ft 14kts
07-Jan-21 18:30 36.586587 -121.845931 127 196ft 13kts
07-Jan-21 18:31 36.585505 -121.842854 113 220ft 7kts
07-Jan-21 18:32 36.583509 -121.836973 112 246ft 16kts
07-Jan-21 18:32 36.582835 -121.834792 92 234ft 0kts
07-Jan-21 18:33 36.582835 -121.834792 92 234ft 0kts
07-Jan-21 18:34 36.582835 -121.834792 92 234ft 0kts
07-Jan-21 18:36 36.582835 -121.834792 92 234ft 0kts
07-Jan-21 18:36 36.582808 -121.834122 90 229ft 16kts
07-Jan-21 18:37 36.588807 -121.849705 295 629ft 81kts
07-Jan-21 18:38 36.599286 -121.875313 335 1434ft 88kts
07-Jan-21 18:39 36.622767 -121.885915 340 2137ft 91kts
07-Jan-21 18:40 36.646250 -121.896364 341 2834ft 88kts
07-Jan-21 18:41 36.668795 -121.906326 341 3527ft 84kts
07-Jan-21 18:42 36.690635 -121.915766 341 4176ft 84kts
07-Jan-21 18:43 36.713071 -121.925081 341 4776ft 85kts
07-Jan-21 18:44 36.722947 -121.947534 272 5374ft 83kts
07-Jan-21 18:45 36.724435 -121.976821 278 5983ft 85kts
07-Jan-21 18:46 36.728302 -122.006041 278 6587ft 84kts
07-Jan-21 18:47 36.732378 -122.034043 278 7180ft 80kts
07-Jan-21 18:48 36.736338 -122.060960 279 7723ft 80kts
07-Jan-21 18:49 36.740804 -122.089415 281 8042ft 96kts
07-Jan-21 18:50 36.746702 -122.125334 278 8003ft 105kts
07-Jan-21 18:51 36.753773 -122.159336 317 8002ft 105kts
07-Jan-21 18:52 36.770143 -122.138844 103 8006ft 114kts
07-Jan-21 18:53 36.762269 -122.100364 107 8005ft 115kts
07-Jan-21 18:54 36.754449 -122.061593 106 8005ft 115kts
07-Jan-21 18:55 36.746786 -122.023024 106 8005ft 114kts
07-Jan-21 18:56 36.739061 -121.984438 105 8004ft 113kts
07-Jan-21 18:57 36.731633 -121.946254 104 8005ft 112kts
07-Jan-21 18:58 36.724324 -121.908346 104 8005ft 112kts
07-Jan-21 18:59 36.716577 -121.869732 105 8006ft 116kts
07-Jan-21 19:00 36.708496 -121.830070 105 8005ft 119kts
07-Jan-21 19:01 36.700352 -121.789884 105 8005ft 119kts
07-Jan-21 19:02 36.692295 -121.749742 104 8005ft 119kts
07-Jan-21 19:03 36.684170 -121.709366 104 8005ft 119kts
07-Jan-21 19:04 36.676086 -121.669234 104 8005ft 119kts
07-Jan-21 19:05 36.667994 -121.629133 104 8005ft 119kts
07-Jan-21 19:06 36.679967 -121.595561 33 8006ft 118kts
07-Jan-21 19:07 36.707779 -121.573822 27 8005ft 118kts
07-Jan-21 19:08 36.736489 -121.553957 25 8005ft 118kts
07-Jan-21 19:09 36.765635 -121.534857 25 8005ft 118kts
07-Jan-21 19:10 36.794601 -121.515678 25 8005ft 118kts
07-Jan-21 19:11 36.823630 -121.496390 25 8005ft 118kts
07-Jan-21 19:12 36.852635 -121.477095 25 8005ft 118kts
07-Jan-21 19:13 36.881680 -121.457746 25 8005ft 118kts
07-Jan-21 19:14 36.910612 -121.438457 26 8005ft 118kts
07-Jan-21 19:15 36.939536 -121.419153 26 8005ft 117kts
07-Jan-21 19:16 36.968430 -121.399861 26 8005ft 117kts
07-Jan-21 19:17 36.997365 -121.380524 26 8005ft 117kts
07-Jan-21 19:18 37.026295 -121.361168 26 8005ft 118kts
07-Jan-21 19:19 37.055148 -121.341854 26 8005ft 117kts
07-Jan-21 19:20 37.084090 -121.322472 26 8005ft 117kts
07-Jan-21 19:21 37.112970 -121.303108 26 8004ft 117kts
07-Jan-21 19:22 37.142190 -121.284511 8 8008ft 117kts
07-Jan-21 19:23 37.169915 -121.302080 320 8020ft 113kts
07-Jan-21 19:24 37.194346 -121.327298 316 8029ft 113kts
07-Jan-21 19:25 37.217518 -121.354339 314 8036ft 113kts
07-Jan-21 19:26 37.240739 -121.381384 314 8044ft 113kts
07-Jan-21 19:27 37.263931 -121.408311 314 8052ft 113kts
07-Jan-21 19:28 37.287125 -121.435262 314 8059ft 113kts
07-Jan-21 19:29 37.310405 -121.462299 314 8059ft 114kts
07-Jan-21 19:30 37.333799 -121.489479 313 8059ft 114kts
07-Jan-21 19:31 37.357138 -121.516634 313 8059ft 114kts
07-Jan-21 19:32 37.380436 -121.543775 313 8059ft 114kts
07-Jan-21 19:33 37.403842 -121.571075 313 8059ft 114kts
07-Jan-21 19:34 37.427230 -121.598354 313 8059ft 114kts
07-Jan-21 19:35 37.450388 -121.625921 311 8059ft 114kts
07-Jan-21 19:36 37.473483 -121.653583 311 8060ft 114kts
07-Jan-21 19:37 37.496601 -121.680902 311 7698ft 110kts
07-Jan-21 19:38 37.519542 -121.704927 310 7246ft 109kts
07-Jan-21 19:39 37.541817 -121.732346 311 6654ft 113kts
07-Jan-21 19:40 37.564294 -121.759726 311 5962ft 112kts
07-Jan-21 19:41 37.586766 -121.787188 312 5264ft 113kts
07-Jan-21 19:42 37.607523 -121.817000 298 4605ft 110kts
07-Jan-21 19:43 37.617761 -121.850811 284 4643ft 104kts
07-Jan-21 19:44 37.627144 -121.885370 287 4643ft 104kts
07-Jan-21 19:45 37.637161 -121.918895 288 4640ft 95kts
07-Jan-21 19:46 37.646687 -121.950177 289 4503ft 101kts
07-Jan-21 19:47 37.657371 -121.984514 290 3832ft 107kts
07-Jan-21 19:48 37.667390 -122.018877 282 3198ft 103kts
07-Jan-21 19:49 37.676070 -122.053410 292 2605ft 103kts
07-Jan-21 19:50 37.686457 -122.085949 293 2039ft 97kts
07-Jan-21 19:51 37.696565 -122.117123 294 1511ft 95kts
07-Jan-21 19:52 37.706420 -122.147568 295 999ft 92kts
07-Jan-21 19:53 37.716028 -122.177323 292 505ft 90kts
07-Jan-21 19:55 37.725218 -122.205959 292 41ft 73kts
07-Jan-21 19:56 37.728729 -122.213943 22 7ft 0kts
07-Jan-21 19:57 37.729660 -122.213260 36 7ft 0kts

Navigation Log

Ident Type
Flight plan parsing failed, navigation log unavailable